createdAt,value
2019-02-04T00:03:08.808Z,49.00
2019-02-04T00:08:12.616Z,49.74
2019-02-04T00:13:16.768Z,49.74
2019-02-04T00:18:20.534Z,49.25
2019-02-04T00:23:24.312Z,49.45
2019-02-04T00:28:28.087Z,49.31
2019-02-04T00:33:31.860Z,49.31
2019-02-04T00:38:35.634Z,49.45
2019-02-04T00:43:39.410Z,49.82
2019-02-04T00:48:43.185Z,49.41
2019-02-04T00:53:46.968Z,49.79
2019-02-04T00:58:50.732Z,49.79
2019-02-04T01:03:54.500Z,49.75
2019-02-04T01:08:58.261Z,50.12
2019-02-04T01:14:02.431Z,50.12
2019-02-04T01:19:06.200Z,49.97
2019-02-04T01:24:09.990Z,49.79
2019-02-04T01:29:13.761Z,49.84
2019-02-04T01:34:17.549Z,50.48
2019-02-04T01:39:21.384Z,50.48
2019-02-04T01:44:25.227Z,50.11
2019-02-04T01:49:29.367Z,50.11
2019-02-04T01:54:33.157Z,50.56
2019-02-04T01:59:36.982Z,50.56
2019-02-04T02:04:40.771Z,50.42
2019-02-04T02:09:44.553Z,49.97
2019-02-04T02:14:48.329Z,49.87
2019-02-04T02:19:52.122Z,49.87
2019-02-04T02:24:56.277Z,50.33
2019-02-04T02:30:00.098Z,51.01
2019-02-04T02:35:04.586Z,50.64
2019-02-04T02:40:12.490Z,50.59
2019-02-04T02:45:16.262Z,50.33
2019-02-04T02:50:20.033Z,50.28
2019-02-04T02:55:23.821Z,50.26
2019-02-04T03:00:28.612Z,50.64
2019-02-04T03:05:32.376Z,50.64
2019-02-04T03:10:36.135Z,50.34
2019-02-04T03:15:39.942Z,50.34
2019-02-04T03:20:43.726Z,50.72
2019-02-04T03:25:47.490Z,51.00
2019-02-04T03:30:51.280Z,50.61
2019-02-04T03:35:55.067Z,50.61
2019-02-04T03:40:58.846Z,50.85
2019-02-04T03:46:02.615Z,50.87
2019-02-04T03:51:06.385Z,51.02
2019-02-04T03:56:10.151Z,50.98
2019-02-04T04:01:13.927Z,50.98
2019-02-04T04:06:17.739Z,50.73
2019-02-04T04:11:21.499Z,50.80
2019-02-04T04:16:25.283Z,50.80
2019-02-04T04:21:29.060Z,51.06
2019-02-04T04:26:32.845Z,51.27
2019-02-04T04:31:36.623Z,50.97
2019-02-04T04:36:40.784Z,50.97
2019-02-04T04:41:44.566Z,50.99
2019-02-04T04:46:48.323Z,50.96
2019-02-04T04:51:52.107Z,51.17
2019-02-04T04:56:55.875Z,51.83
2019-02-04T05:01:59.640Z,51.46
2019-02-04T05:07:03.416Z,52.03
2019-02-04T05:12:07.183Z,52.04
2019-02-04T05:17:10.982Z,51.35
2019-02-04T05:22:14.746Z,51.70
2019-02-04T05:27:18.527Z,51.50
2019-02-04T05:32:22.285Z,51.27
2019-02-04T05:37:26.068Z,51.27
2019-02-04T05:42:29.833Z,51.36
2019-02-04T05:47:33.616Z,51.57
2019-02-04T05:52:37.383Z,51.26
2019-02-04T05:57:41.159Z,51.26
2019-02-04T06:02:44.933Z,51.35
2019-02-04T06:07:48.699Z,51.35
2019-02-04T06:12:52.852Z,51.65
2019-02-04T06:17:56.615Z,51.23
2019-02-04T06:23:00.405Z,51.42
2019-02-04T06:28:04.204Z,51.03
2019-02-04T06:33:08.002Z,51.03
2019-02-04T06:38:11.798Z,51.49
2019-02-04T06:43:15.575Z,51.23
2019-02-04T06:48:19.341Z,51.23
2019-02-04T06:53:23.111Z,51.07
2019-02-04T06:58:26.873Z,51.07
2019-02-04T07:03:30.641Z,51.09
2019-02-04T07:08:34.408Z,51.08
2019-02-04T07:13:42.145Z,51.08
2019-02-04T07:18:44.044Z,51.41
2019-02-04T07:23:47.866Z,51.21
2019-02-04T07:28:51.647Z,50.86
2019-02-04T07:33:55.488Z,51.45
2019-02-04T07:38:59.259Z,51.16
2019-02-04T07:44:03.058Z,51.16
2019-02-04T07:49:06.839Z,51.24
2019-02-04T07:54:10.601Z,51.18
2019-02-04T07:59:14.370Z,50.88
2019-02-04T08:04:18.232Z,35.32
2019-02-04T08:09:22.113Z,37.83
2019-02-04T08:14:26.282Z,37.76
2019-02-04T08:19:30.095Z,37.76
2019-02-04T08:24:34.261Z,34.42
2019-02-04T08:29:38.044Z,34.42
2019-02-04T08:34:41.884Z,35.23
2019-02-04T08:39:45.959Z,36.40
2019-02-04T08:44:49.838Z,37.63
2019-02-04T08:49:58.575Z,38.33
2019-02-04T08:54:59.264Z,38.79
2019-02-04T09:00:03.220Z,40.34
2019-02-04T09:05:08.090Z,40.34
2019-02-04T09:10:15.140Z,41.00
2019-02-04T09:15:18.990Z,41.00
2019-02-04T09:20:22.999Z,41.40
2019-02-04T09:25:26.854Z,41.63
2019-02-04T09:30:30.684Z,42.06
2019-02-04T09:35:34.500Z,41.68
2019-02-04T09:40:40.803Z,42.38
2019-02-04T09:45:45.297Z,42.52
2019-02-04T09:50:51.839Z,42.52
2019-02-04T09:55:57.120Z,43.45
2019-02-04T10:01:04.140Z,43.45
2019-02-04T10:06:06.706Z,33.65
2019-02-04T10:11:10.533Z,33.65
2019-02-04T10:16:14.372Z,39.51
2019-02-04T10:21:18.250Z,40.69
2019-02-04T10:26:22.035Z,40.98
2019-02-04T10:31:25.977Z,41.44
2019-02-04T10:36:29.795Z,41.45
2019-02-04T10:41:35.040Z,41.88
2019-02-04T10:46:38.996Z,42.53
2019-02-04T10:51:42.860Z,42.82
2019-02-04T10:56:46.753Z,43.13
2019-02-04T11:01:50.619Z,43.80
2019-02-04T11:06:54.446Z,43.76
2019-02-04T11:11:58.391Z,44.17
2019-02-04T11:17:02.172Z,44.70
2019-02-04T11:22:06.005Z,44.65
2019-02-04T11:27:09.977Z,44.27
2019-02-04T11:32:13.814Z,44.27
2019-02-04T11:37:17.687Z,45.12
2019-02-04T11:42:21.892Z,46.13
2019-02-04T11:47:25.767Z,47.05
2019-02-04T11:52:29.594Z,46.45
2019-02-04T11:57:33.536Z,46.75
2019-02-04T12:02:37.338Z,46.72
2019-02-04T12:07:41.137Z,46.78
2019-02-04T12:12:45.068Z,46.96
2019-02-04T12:17:48.880Z,46.96
2019-02-04T12:22:52.725Z,47.03
2019-02-04T12:27:56.576Z,47.31
2019-02-04T12:33:00.498Z,46.72
2019-02-04T12:38:04.303Z,46.72
2019-02-04T12:43:08.608Z,46.98
2019-02-04T12:48:12.376Z,47.08
2019-02-04T12:53:16.168Z,47.01
2019-02-04T12:58:19.969Z,47.01
2019-02-04T13:03:23.941Z,46.71
2019-02-04T13:08:27.727Z,47.09
2019-02-04T13:13:31.514Z,47.00
2019-02-04T13:18:35.306Z,47.55
2019-02-04T13:23:39.131Z,47.23
2019-02-04T13:28:42.981Z,47.53
2019-02-04T13:33:46.781Z,47.32
2019-02-04T13:38:50.595Z,47.24
2019-02-04T13:43:54.769Z,47.03
2019-02-04T13:48:58.560Z,47.01
2019-02-04T13:54:02.348Z,45.92
2019-02-04T13:59:06.148Z,45.92
2019-02-04T14:04:09.964Z,44.88
2019-02-04T14:09:17.783Z,44.21
2019-02-04T14:14:21.575Z,44.81
2019-02-04T14:19:25.747Z,45.19
2019-02-04T14:24:29.535Z,45.34
2019-02-04T14:29:33.812Z,45.34
2019-02-04T14:34:37.815Z,32.82
2019-02-04T14:39:41.604Z,42.41
2019-02-04T14:44:50.642Z,43.61
2019-02-04T14:50:38.743Z,44.08
2019-02-04T14:56:30.315Z,44.58
2019-02-04T15:02:10.558Z,44.58
2019-02-04T15:07:52.441Z,44.60
2019-02-04T15:13:13.892Z,44.42
2019-02-04T15:18:57.287Z,45.00
2019-02-04T15:24:10.582Z,45.49
2019-02-04T15:29:46.820Z,45.93
2019-02-04T15:41:07.922Z,46.37
2019-02-04T15:46:36.808Z,46.28
2019-02-04T15:51:46.055Z,46.77
2019-02-04T15:56:49.855Z,46.77
2019-02-04T16:01:53.674Z,46.39
2019-02-04T16:06:57.531Z,46.39
2019-02-04T16:12:01.330Z,45.35
2019-02-04T16:17:08.172Z,45.34
2019-02-04T16:22:12.142Z,45.68
2019-02-04T16:27:15.953Z,45.59
2019-02-04T16:32:20.001Z,45.68
2019-02-04T16:37:23.814Z,46.32
2019-02-04T16:42:27.652Z,46.60
2019-02-04T16:47:31.718Z,46.92
2019-02-04T16:52:35.548Z,46.72
2019-02-04T16:57:39.341Z,46.63
2019-02-04T17:02:43.808Z,46.63
2019-02-04T17:07:47.744Z,46.38
2019-02-04T17:12:51.618Z,45.81
2019-02-04T17:17:55.546Z,45.21
2019-02-04T17:22:59.428Z,44.68
2019-02-04T17:28:03.230Z,44.68
2019-02-04T17:33:07.196Z,44.37
2019-02-04T17:38:11.676Z,44.88
2019-02-04T17:43:15.775Z,44.82
2019-02-04T17:48:19.573Z,44.98
2019-02-04T17:53:33.957Z,44.70
2019-02-04T17:58:29.637Z,44.66
2019-02-04T18:03:33.968Z,44.57
2019-02-04T18:08:38.101Z,44.57
2019-02-04T18:13:42.952Z,44.43
2019-02-04T18:18:47.197Z,44.57
2019-02-04T18:23:51.191Z,44.82
2019-02-04T18:28:56.018Z,44.82
2019-02-04T18:34:00.672Z,44.47
2019-02-04T18:39:08.611Z,44.54
2019-02-04T18:44:15.298Z,44.55
2019-02-04T18:49:21.513Z,43.95
2019-02-04T18:54:27.081Z,44.33
2019-02-04T18:59:32.489Z,44.77
2019-02-04T19:04:37.601Z,44.77
2019-02-04T19:09:43.046Z,44.95
2019-02-04T19:14:48.582Z,44.95
2019-02-04T19:19:53.896Z,44.88
2019-02-04T19:24:58.776Z,44.90
2019-02-04T19:30:05.872Z,44.90
2019-02-04T19:35:12.342Z,44.55
2019-02-04T19:40:18.834Z,44.94
2019-02-04T19:45:24.681Z,44.99
2019-02-04T19:50:32.621Z,45.42
2019-02-04T19:55:38.265Z,45.20
2019-02-04T20:00:45.429Z,45.59
2019-02-04T20:05:51.750Z,44.90
2019-02-04T20:10:57.978Z,45.03
2019-02-04T20:16:04.180Z,45.03
2019-02-04T20:21:10.709Z,45.65
2019-02-04T20:26:17.399Z,46.07
2019-02-04T20:31:24.691Z,45.97
2019-02-04T20:36:31.699Z,45.68
2019-02-04T20:41:37.966Z,45.68
2019-02-04T20:46:44.339Z,46.14
2019-02-04T20:51:50.521Z,46.18
2019-02-04T20:56:56.954Z,46.49
2019-02-04T21:02:02.432Z,46.27
2019-02-04T21:07:08.344Z,46.27
2019-02-04T21:12:13.488Z,46.75
2019-02-04T21:17:18.624Z,47.00
2019-02-04T21:22:24.388Z,47.00
2019-02-04T21:27:28.538Z,46.81
2019-02-04T21:32:33.125Z,46.74
2019-02-04T21:37:37.308Z,46.95
2019-02-04T21:42:41.334Z,46.95
2019-02-04T21:47:45.190Z,47.48
2019-02-04T21:52:48.970Z,47.48
2019-02-04T21:57:52.989Z,47.53
2019-02-04T22:02:56.808Z,47.81
2019-02-04T22:08:00.705Z,47.26
2019-02-04T22:13:04.497Z,47.29
2019-02-04T22:18:08.795Z,47.58
2019-02-04T22:23:13.048Z,48.09
2019-02-04T22:28:17.340Z,48.06
2019-02-04T22:33:21.463Z,48.06
2019-02-04T22:38:25.641Z,47.86
2019-02-04T22:43:29.461Z,47.90
2019-02-04T22:48:33.269Z,48.20
2019-02-04T22:53:37.098Z,47.80
2019-02-04T22:58:40.937Z,47.63
2019-02-04T23:03:44.754Z,48.41
2019-02-04T23:08:48.559Z,47.78
2019-02-04T23:13:52.754Z,47.78
2019-02-04T23:18:56.545Z,48.53
2019-02-04T23:24:00.369Z,48.32
2019-02-04T23:29:04.380Z,48.47
2019-02-04T23:34:08.175Z,48.33
2019-02-04T23:39:12.000Z,48.33
2019-02-04T23:44:15.781Z,48.55
2019-02-04T23:49:19.565Z,48.60
2019-02-04T23:54:23.366Z,49.07
2019-02-04T23:59:27.167Z,48.92
